Time;durP1;ratioP1;P1;durP2;ratioP2;P2;SDS_P1;SDS_P2;PMS_P1;PMS_P2;Temp;Humidity;BMP_temperature;BMP_pressure;BME280_temperature;BME280_humidity;BME280_pressure;Samples;Min_cycle;Max_cycle;Signal;HPM_P1;HPM_P2
2021/06/07 00:01:14;;;;;;;4.57;4.22;;;;;;;;;;5096156;28;20012;-72
2021/06/07 00:03:40;;;;;;;4.97;4.57;;;;;;;;;;5095828;28;20028;-72
2021/06/07 00:06:06;;;;;;;4.88;4.57;;;;;;;;;;5095427;28;20051;-72
2021/06/07 00:08:31;;;;;;;5.80;4.68;;;;;;;;;;5095601;28;20020;-72
2021/06/07 00:10:57;;;;;;;4.95;4.57;;;;;;;;;;5095459;28;20023;-72
2021/06/07 00:13:24;;;;;;;4.30;4.00;;;;;;;;;;5095742;28;20394;-71
2021/06/07 00:15:50;;;;;;;5.00;4.38;;;;;;;;;;5095603;28;20063;-71
2021/06/07 00:18:16;;;;;;;4.80;4.40;;;;;;;;;;5095920;28;20410;-71
2021/06/07 00:20:44;;;;;;;5.05;4.50;;;;;;;;;;5095631;28;20047;-70
2021/06/07 00:23:11;;;;;;;4.38;4.00;;;;;;;;;;5095686;28;20112;-70
2021/06/07 00:25:37;;;;;;;4.65;4.25;;;;;;;;;;5095312;28;20020;-71
2021/06/07 00:28:03;;;;;;;4.45;4.15;;;;;;;;;;5095460;28;20036;-70
2021/06/07 00:30:29;;;;;;;5.00;4.40;;;;;;;;;;5095228;28;20094;-70
2021/06/07 00:32:56;;;;;;;4.35;4.13;;;;;;;;;;5095150;28;20021;-70
2021/06/07 00:35:23;;;;;;;4.35;4.05;;;;;;;;;;5094958;28;20016;-70
2021/06/07 00:37:49;;;;;;;4.35;4.10;;;;;;;;;;5095358;28;20039;-70
2021/06/07 00:40:15;;;;;;;4.03;3.78;;;;;;;;;;5095418;28;20020;-70
2021/06/07 00:42:41;;;;;;;4.00;3.70;;;;;;;;;;5076927;28;20162;-69
2021/06/07 00:45:12;;;;;;;4.05;3.75;;;;;;;;;;5094723;28;20490;-70
2021/06/07 00:47:38;;;;;;;3.58;3.28;;;;;;;;;;5094955;28;20024;-70
2021/06/07 00:50:11;;;;;;;3.55;3.22;;;;;;;;;;5076717;28;20020;-71
2021/06/07 00:52:36;;;;;;;2.85;2.65;;;;;;;;;;5095031;28;20113;-72
2021/06/07 00:55:03;;;;;;;3.28;2.97;;;;;;;;;;5076548;28;20052;-69
2021/06/07 00:57:29;;;;;;;3.30;3.05;;;;;;;;;;5076896;28;20366;-69
2021/06/07 00:59:56;;;;;;;2.92;2.40;;;;;;;;;;5075900;28;20018;-69
2021/06/07 01:02:22;;;;;;;2.75;2.65;;;;;;;;;;5094184;28;20024;-70
2021/06/07 01:04:48;;;;;;;2.58;2.38;;;;;;;;;;5095254;28;20022;-69
2021/06/07 01:07:14;;;;;;;2.45;2.35;;;;;;;;;;5094908;28;20024;-70
2021/06/07 01:09:39;;;;;;;4.25;2.63;;;;;;;;;;5094839;28;20016;-70
2021/06/07 01:12:06;;;;;;;4.57;2.88;;;;;;;;;;5094507;28;20036;-70
2021/06/07 01:14:31;;;;;;;3.03;2.83;;;;;;;;;;5094951;28;20431;-70
2021/06/07 01:16:57;;;;;;;2.92;2.72;;;;;;;;;;5076561;28;20059;-70
2021/06/07 01:19:22;;;;;;;2.60;2.42;;;;;;;;;;5076084;28;20020;-70
2021/06/07 01:21:48;;;;;;;2.72;2.63;;;;;;;;;;5094508;28;20055;-70
2021/06/07 01:24:14;;;;;;;3.40;2.78;;;;;;;;;;5094614;28;20023;-70
2021/06/07 01:26:39;;;;;;;2.33;2.22;;;;;;;;;;5076141;28;20035;-70
2021/06/07 01:29:05;;;;;;;2.45;2.35;;;;;;;;;;5094390;28;20019;-70
2021/06/07 01:31:31;;;;;;;3.08;2.40;;;;;;;;;;5094334;28;20050;-69
2021/06/07 01:33:57;;;;;;;2.83;2.63;;;;;;;;;;5094451;28;20020;-70
2021/06/07 01:36:23;;;;;;;3.38;2.45;;;;;;;;;;5093981;28;20032;-71
2021/06/07 01:38:48;;;;;;;2.83;2.70;;;;;;;;;;5076076;28;20020;-71
2021/06/07 01:41:15;;;;;;;2.85;2.58;;;;;;;;;;5094009;28;20025;-70
2021/06/07 01:43:40;;;;;;;2.92;2.70;;;;;;;;;;5075731;28;20036;-71
2021/06/07 01:46:06;;;;;;;2.58;2.38;;;;;;;;;;5093930;28;20040;-71
2021/06/07 01:48:33;;;;;;;2.47;2.17;;;;;;;;;;5093989;28;20032;-70
2021/06/07 01:51:00;;;;;;;2.10;1.98;;;;;;;;;;5093594;28;20536;-69
2021/06/07 01:53:27;;;;;;;2.35;2.25;;;;;;;;;;5075660;28;20024;-69
2021/06/07 01:55:54;;;;;;;2.22;2.13;;;;;;;;;;5075018;28;20032;-69
2021/06/07 01:58:20;;;;;;;2.30;2.20;;;;;;;;;;5075538;28;20448;-69
2021/06/07 02:00:52;;;;;;;2.33;2.22;;;;;;;;;;5093684;28;20405;-70
2021/06/07 02:03:19;;;;;;;2.40;2.17;;;;;;;;;;5093736;28;20024;-70
2021/06/07 02:05:46;;;;;;;2.60;2.50;;;;;;;;;;5093604;28;20020;-70
2021/06/07 02:08:13;;;;;;;2.63;2.42;;;;;;;;;;5093568;28;20028;-69
2021/06/07 02:10:40;;;;;;;3.20;2.75;;;;;;;;;;5093732;28;20046;-69
2021/06/07 02:13:05;;;;;;;2.30;2.20;;;;;;;;;;5093820;28;20486;-69
2021/06/07 02:15:31;;;;;;;2.50;2.40;;;;;;;;;;5093236;28;20159;-69
2021/06/07 02:18:15;;;;;;;2.80;2.60;;;;;;;;;;5093314;28;20111;-69
2021/06/07 02:20:41;;;;;;;2.45;2.25;;;;;;;;;;5093522;28;20159;-69
2021/06/07 02:23:07;;;;;;;2.30;2.20;;;;;;;;;;5093668;28;20518;-69
2021/06/07 02:25:32;;;;;;;2.60;2.40;;;;;;;;;;5093474;28;20051;-69
2021/06/07 02:28:00;;;;;;;3.00;2.35;;;;;;;;;;5075398;28;20047;-70
2021/06/07 02:30:27;;;;;;;2.72;2.50;;;;;;;;;;5093302;28;20024;-70
2021/06/07 02:32:53;;;;;;;2.47;2.35;;;;;;;;;;5093142;28;20020;-70
2021/06/07 02:35:21;;;;;;;2.03;1.92;;;;;;;;;;5093174;28;20028;-70
2021/06/07 02:37:48;;;;;;;2.40;2.17;;;;;;;;;;5093344;28;20020;-70
2021/06/07 02:40:16;;;;;;;2.20;2.10;;;;;;;;;;5093616;28;20024;-70
2021/06/07 02:42:47;;;;;;;2.20;2.10;;;;;;;;;;5058624;28;20028;-70
2021/06/07 02:45:14;;;;;;;2.55;2.35;;;;;;;;;;5093063;28;20064;-69
2021/06/07 02:47:40;;;;;;;2.25;2.15;;;;;;;;;;5093323;28;20016;-70
2021/06/07 02:50:07;;;;;;;2.17;2.08;;;;;;;;;;5092994;28;20036;-69
2021/06/07 02:52:32;;;;;;;4.22;2.33;;;;;;;;;;5075520;28;20111;-69
2021/06/07 02:54:58;;;;;;;2.45;2.35;;;;;;;;;;5093326;28;20111;-69
2021/06/07 02:57:23;;;;;;;2.78;2.47;;;;;;;;;;5075095;28;20466;-70
2021/06/07 02:59:49;;;;;;;2.67;2.47;;;;;;;;;;5093083;28;20024;-70
2021/06/07 03:02:15;;;;;;;2.58;2.45;;;;;;;;;;5093151;28;20048;-69
2021/06/07 03:04:41;;;;;;;2.58;2.35;;;;;;;;;;5093306;28;20051;-69
2021/06/07 03:07:07;;;;;;;3.55;2.13;;;;;;;;;;5093264;28;20106;-70
2021/06/07 03:09:33;;;;;;;2.38;2.20;;;;;;;;;;5093585;28;20028;-70
2021/06/07 03:11:58;;;;;;;2.97;2.22;;;;;;;;;;5092880;28;20362;-70
2021/06/07 03:14:25;;;;;;;2.40;2.20;;;;;;;;;;5092787;28;20028;-70
2021/06/07 03:16:50;;;;;;;2.70;2.50;;;;;;;;;;5074964;28;20105;-72
2021/06/07 03:19:20;;;;;;;2.30;2.20;;;;;;;;;;5092980;28;20478;-70
2021/06/07 03:21:47;;;;;;;2.65;2.55;;;;;;;;;;5092925;28;20497;-70
2021/06/07 03:24:14;;;;;;;2.80;2.60;;;;;;;;;;5096683;28;20020;-70
2021/06/07 03:26:39;;;;;;;5.82;2.90;;;;;;;;;;5096534;28;20565;-70
2021/06/07 03:29:05;;;;;;;3.88;2.60;;;;;;;;;;5078197;28;20052;-70
2021/06/07 03:31:32;;;;;;;3.00;2.80;;;;;;;;;;5096706;28;20482;-69
2021/06/07 03:33:57;;;;;;;2.78;2.45;;;;;;;;;;5096564;28;20020;-69
2021/06/07 03:36:23;;;;;;;2.88;2.63;;;;;;;;;;5096722;28;20028;-69
2021/06/07 03:38:48;;;;;;;3.25;3.00;;;;;;;;;;5096595;28;20012;-69
2021/06/07 03:41:14;;;;;;;2.92;2.55;;;;;;;;;;5096627;28;20058;-70
2021/06/07 03:43:39;;;;;;;3.00;2.80;;;;;;;;;;5078315;28;20031;-70
2021/06/07 03:46:05;;;;;;;3.35;2.85;;;;;;;;;;5078237;28;20047;-70
2021/06/07 03:48:31;;;;;;;3.90;3.28;;;;;;;;;;5096090;28;20035;-71
2021/06/07 03:50:57;;;;;;;3.00;2.80;;;;;;;;;;5096133;28;20506;-70
2021/06/07 03:53:22;;;;;;;4.03;3.17;;;;;;;;;;5096075;28;20027;-72
2021/06/07 03:55:48;;;;;;;3.70;3.30;;;;;;;;;;5095834;28;20036;-71
2021/06/07 03:58:15;;;;;;;3.58;3.33;;;;;;;;;;5095921;28;20481;-71
2021/06/07 04:00:40;;;;;;;3.90;3.05;;;;;;;;;;5095868;28;20017;-71
2021/06/07 04:03:07;;;;;;;6.70;3.13;;;;;;;;;;5095750;28;20020;-71
2021/06/07 04:05:34;;;;;;;3.85;3.25;;;;;;;;;;5094954;28;20091;-69
2021/06/07 04:08:07;;;;;;;3.30;3.05;;;;;;;;;;5094710;28;20374;-70
2021/06/07 04:10:33;;;;;;;3.05;2.83;;;;;;;;;;5094744;28;20020;-70
2021/06/07 04:12:59;;;;;;;2.90;2.65;;;;;;;;;;5076776;28;20118;-71
2021/06/07 04:15:27;;;;;;;2.90;2.70;;;;;;;;;;5094778;28;20521;-69
2021/06/07 04:17:54;;;;;;;6.70;3.10;;;;;;;;;;5076731;28;20012;-69
2021/06/07 04:20:22;;;;;;;3.42;3.22;;;;;;;;;;5095461;28;20031;-72
2021/06/07 04:22:51;;;;;;;3.33;3.13;;;;;;;;;;5077753;28;20339;-72
2021/06/07 04:25:18;;;;;;;5.32;3.78;;;;;;;;;;5095189;28;20484;-69
2021/06/07 04:27:44;;;;;;;3.95;3.67;;;;;;;;;;5094655;28;20047;-72
2021/06/07 04:30:11;;;;;;;3.72;3.15;;;;;;;;;;5095195;28;20075;-71
2021/06/07 04:32:37;;;;;;;3.47;3.28;;;;;;;;;;5095378;28;20024;-72
2021/06/07 04:35:04;;;;;;;3.55;3.20;;;;;;;;;;5093830;28;20024;-72
2021/06/07 04:37:30;;;;;;;3.70;3.40;;;;;;;;;;5095270;28;20016;-72
2021/06/07 04:39:55;;;;;;;3.88;3.45;;;;;;;;;;5095341;28;20061;-71
2021/06/07 04:42:21;;;;;;;3.28;3.08;;;;;;;;;;5094576;28;20047;-72
2021/06/07 04:44:47;;;;;;;3.90;3.50;;;;;;;;;;5093608;28;20044;-72
2021/06/07 04:47:12;;;;;;;4.00;3.70;;;;;;;;;;5094220;28;20545;-72
2021/06/07 04:49:38;;;;;;;3.25;2.97;;;;;;;;;;5075573;28;20463;-72
2021/06/07 04:52:04;;;;;;;3.60;3.40;;;;;;;;;;5094572;28;20039;-72
2021/06/07 04:54:29;;;;;;;3.70;3.35;;;;;;;;;;5094621;28;20480;-72
2021/06/07 04:56:56;;;;;;;3.40;3.20;;;;;;;;;;5094735;28;20020;-72
2021/06/07 04:59:22;;;;;;;3.80;3.08;;;;;;;;;;5094052;28;20107;-69
2021/06/07 05:01:49;;;;;;;3.25;3.00;;;;;;;;;;5094528;28;20078;-68
2021/06/07 05:04:14;;;;;;;3.58;3.22;;;;;;;;;;5094503;28;20448;-69
2021/06/07 05:06:40;;;;;;;3.67;3.38;;;;;;;;;;5094803;28;20048;-69
2021/06/07 05:09:05;;;;;;;3.40;3.10;;;;;;;;;;5094505;28;20031;-69
2021/06/07 05:11:31;;;;;;;3.40;3.10;;;;;;;;;;5076087;28;20458;-69
2021/06/07 05:13:57;;;;;;;4.28;3.47;;;;;;;;;;5093658;28;20032;-69
2021/06/07 05:16:22;;;;;;;3.53;3.22;;;;;;;;;;5093583;28;20465;-69
2021/06/07 05:18:48;;;;;;;4.15;3.83;;;;;;;;;;5094237;28;20031;-68
2021/06/07 05:21:13;;;;;;;6.07;4.70;;;;;;;;;;5076272;28;20497;-69
2021/06/07 05:23:39;;;;;;;9.07;5.45;;;;;;;;;;5094063;28;20470;-68
2021/06/07 05:26:04;;;;;;;6.78;5.50;;;;;;;;;;5075788;28;20433;-69
2021/06/07 05:28:30;;;;;;;6.28;5.60;;;;;;;;;;5093912;28;20051;-68
2021/06/07 05:30:55;;;;;;;8.00;6.40;;;;;;;;;;5075691;28;20043;-68
2021/06/07 05:33:21;;;;;;;7.03;5.45;;;;;;;;;;5093766;28;20036;-68
2021/06/07 05:35:47;;;;;;;6.47;5.15;;;;;;;;;;5075449;28;20028;-68
2021/06/07 05:38:14;;;;;;;5.60;5.15;;;;;;;;;;5093631;28;20386;-69
2021/06/07 05:40:39;;;;;;;5.43;4.93;;;;;;;;;;5093679;28;20095;-69
2021/06/07 05:43:05;;;;;;;7.38;5.38;;;;;;;;;;5093712;28;20474;-69
2021/06/07 05:45:31;;;;;;;5.78;5.05;;;;;;;;;;5076947;28;20059;-68
2021/06/07 05:47:58;;;;;;;4.53;4.22;;;;;;;;;;5073145;28;20028;-69
2021/06/07 05:50:25;;;;;;;5.28;4.80;;;;;;;;;;5073374;28;20036;-69
2021/06/07 05:52:51;;;;;;;5.47;4.70;;;;;;;;;;5073194;28;20039;-69
2021/06/07 05:55:18;;;;;;;5.57;5.15;;;;;;;;;;5055173;28;20028;-69
2021/06/07 05:57:45;;;;;;;6.13;5.00;;;;;;;;;;5073063;28;20048;-69
2021/06/07 06:00:11;;;;;;;6.57;5.13;;;;;;;;;;5073070;28;20064;-69
2021/06/07 06:02:37;;;;;;;6.00;4.97;;;;;;;;;;5072998;28;20115;-69
2021/06/07 06:05:03;;;;;;;7.32;4.95;;;;;;;;;;5073125;28;20104;-69
2021/06/07 06:07:28;;;;;;;6.70;4.90;;;;;;;;;;5072948;28;20059;-69
2021/06/07 06:09:54;;;;;;;5.45;4.95;;;;;;;;;;5055070;28;20052;-69
2021/06/07 06:12:19;;;;;;;5.15;4.70;;;;;;;;;;5055206;28;20577;-69
2021/06/07 06:14:45;;;;;;;4.45;4.15;;;;;;;;;;5073158;28;20021;-69
2021/06/07 06:17:10;;;;;;;5.32;4.57;;;;;;;;;;5072886;28;20079;-69
2021/06/07 06:19:36;;;;;;;6.30;4.70;;;;;;;;;;5055054;28;20017;-69
2021/06/07 06:22:04;;;;;;;4.82;4.38;;;;;;;;;;5072840;28;20024;-69
2021/06/07 06:24:29;;;;;;;6.13;4.40;;;;;;;;;;5054901;28;20387;-69
2021/06/07 06:26:55;;;;;;;4.60;4.20;;;;;;;;;;5072862;28;20025;-69
2021/06/07 06:29:20;;;;;;;4.85;3.95;;;;;;;;;;5072871;28;20078;-69
2021/06/07 06:31:46;;;;;;;4.85;4.10;;;;;;;;;;5072693;28;20033;-69
2021/06/07 06:34:11;;;;;;;3.88;3.58;;;;;;;;;;5072781;28;20021;-69
2021/06/07 06:36:37;;;;;;;6.05;4.40;;;;;;;;;;5072596;28;20501;-69
2021/06/07 06:39:03;;;;;;;7.10;4.30;;;;;;;;;;5054816;28;20351;-69
2021/06/07 06:41:30;;;;;;;4.07;3.50;;;;;;;;;;5072859;28;20057;-69
2021/06/07 06:43:56;;;;;;;4.07;3.67;;;;;;;;;;5075310;28;20048;-69
2021/06/07 06:46:21;;;;;;;4.32;4.03;;;;;;;;;;5093082;28;20027;-69
2021/06/07 06:48:48;;;;;;;5.25;3.80;;;;;;;;;;5092837;28;20094;-69
2021/06/07 06:51:13;;;;;;;3.90;3.50;;;;;;;;;;5092820;28;20443;-69
2021/06/07 06:53:39;;;;;;;3.40;3.20;;;;;;;;;;5092664;28;20099;-69
2021/06/07 06:56:05;;;;;;;3.88;3.47;;;;;;;;;;5092788;28;20386;-69
2021/06/07 06:58:30;;;;;;;3.38;3.15;;;;;;;;;;5077754;28;20070;-69
2021/06/07 07:00:56;;;;;;;3.50;3.20;;;;;;;;;;5078671;28;20429;-69
2021/06/07 07:03:22;;;;;;;2.92;2.70;;;;;;;;;;5096695;28;20020;-69
2021/06/07 07:05:48;;;;;;;3.00;2.78;;;;;;;;;;5096526;28;20028;-69
2021/06/07 07:08:14;;;;;;;3.13;2.83;;;;;;;;;;5096605;28;20024;-69
2021/06/07 07:10:40;;;;;;;3.15;2.83;;;;;;;;;;5096496;28;20035;-69
2021/06/07 07:13:06;;;;;;;2.80;2.63;;;;;;;;;;5096438;28;20032;-68
2021/06/07 07:15:32;;;;;;;2.80;2.63;;;;;;;;;;5078052;28;20125;-68
2021/06/07 07:17:58;;;;;;;4.20;3.10;;;;;;;;;;5078212;28;20059;-69
2021/06/07 07:20:23;;;;;;;2.58;2.38;;;;;;;;;;5096361;28;20027;-69
2021/06/07 07:22:48;;;;;;;2.67;2.53;;;;;;;;;;5096401;28;20017;-69
2021/06/07 07:25:14;;;;;;;3.67;3.25;;;;;;;;;;5095999;28;20024;-69
2021/06/07 07:27:40;;;;;;;6.72;3.88;;;;;;;;;;5096396;28;20011;-69
2021/06/07 07:30:10;;;;;;;3.47;2.95;;;;;;;;;;5096133;28;20115;-69
2021/06/07 07:32:36;;;;;;;5.32;3.13;;;;;;;;;;5077953;28;20066;-69
2021/06/07 07:35:03;;;;;;;2.40;2.22;;;;;;;;;;5096148;28;20012;-69
2021/06/07 07:37:28;;;;;;;2.65;2.33;;;;;;;;;;5095873;28;20067;-69
2021/06/07 07:39:54;;;;;;;2.75;2.35;;;;;;;;;;5095979;28;20043;-68
2021/06/07 07:42:19;;;;;;;1.98;1.88;;;;;;;;;;5077847;28;20020;-69
2021/06/07 07:44:45;;;;;;;2.67;2.45;;;;;;;;;;5095352;28;20090;-69
2021/06/07 07:47:10;;;;;;;3.22;2.90;;;;;;;;;;5077758;28;20035;-69
2021/06/07 07:49:36;;;;;;;2.50;2.40;;;;;;;;;;5095771;28;20386;-69
2021/06/07 07:52:03;;;;;;;2.88;2.67;;;;;;;;;;5095754;28;20028;-69
2021/06/07 07:54:28;;;;;;;3.35;2.80;;;;;;;;;;5077445;28;20020;-69
2021/06/07 07:56:54;;;;;;;3.47;2.50;;;;;;;;;;5095598;28;20035;-69
2021/06/07 07:59:19;;;;;;;2.78;2.58;;;;;;;;;;5095497;28;20022;-69
2021/06/07 08:01:45;;;;;;;2.70;2.35;;;;;;;;;;5095425;28;20509;-69
2021/06/07 08:04:10;;;;;;;3.33;2.33;;;;;;;;;;5095575;28;20451;-69
2021/06/07 08:06:36;;;;;;;2.55;2.42;;;;;;;;;;5077415;28;20063;-69
2021/06/07 08:09:02;;;;;;;2.90;2.40;;;;;;;;;;5095269;28;20020;-69
2021/06/07 08:11:29;;;;;;;4.28;2.47;;;;;;;;;;5060384;28;20036;-68
2021/06/07 08:14:00;;;;;;;2.83;2.63;;;;;;;;;;5077263;28;20452;-68
2021/06/07 08:16:27;;;;;;;3.08;2.33;;;;;;;;;;5095249;28;20035;-68
2021/06/07 08:18:52;;;;;;;2.67;2.47;;;;;;;;;;5095198;28;20458;-69
2021/06/07 08:21:18;;;;;;;2.45;2.20;;;;;;;;;;5094838;28;20036;-69
2021/06/07 08:23:43;;;;;;;2.80;2.55;;;;;;;;;;5095347;28;20017;-69
2021/06/07 08:26:09;;;;;;;2.58;2.38;;;;;;;;;;5095031;28;20028;-69
2021/06/07 08:28:34;;;;;;;5.20;3.08;;;;;;;;;;5094866;28;20485;-69
2021/06/07 08:31:00;;;;;;;4.35;2.55;;;;;;;;;;5076639;28;20111;-69
2021/06/07 08:33:25;;;;;;;4.78;2.78;;;;;;;;;;5094947;28;20478;-69
2021/06/07 08:35:52;;;;;;;3.25;2.92;;;;;;;;;;5094826;28;20133;-68
2021/06/07 08:38:18;;;;;;;4.82;2.80;;;;;;;;;;5094673;28;20097;-69
2021/06/07 08:40:46;;;;;;;2.78;2.58;;;;;;;;;;5094787;28;20035;-68
2021/06/07 08:43:12;;;;;;;2.92;2.63;;;;;;;;;;5094778;28;20035;-69
2021/06/07 08:45:38;;;;;;;3.58;2.72;;;;;;;;;;5094590;28;20040;-69
2021/06/07 08:48:04;;;;;;;6.07;2.70;;;;;;;;;;5094672;28;20496;-69
2021/06/07 08:50:30;;;;;;;3.05;2.75;;;;;;;;;;5094676;28;20024;-69
2021/06/07 08:52:56;;;;;;;2.80;2.60;;;;;;;;;;5094532;28;20016;-69
2021/06/07 08:55:23;;;;;;;2.60;2.42;;;;;;;;;;5094282;28;20478;-69
2021/06/07 08:57:50;;;;;;;2.95;2.75;;;;;;;;;;5094497;28;20078;-69
2021/06/07 09:00:26;;;;;;;4.70;2.53;;;;;;;;;;5094459;28;20078;-69
2021/06/07 09:02:58;;;;;;;2.70;2.50;;;;;;;;;;5094387;28;20111;-68
2021/06/07 09:05:23;;;;;;;3.72;2.90;;;;;;;;;;5094392;28;20111;-68
2021/06/07 09:07:51;;;;;;;3.42;2.60;;;;;;;;;;5094418;28;20091;-68
2021/06/07 09:10:17;;;;;;;3.05;2.60;;;;;;;;;;5076087;28;20028;-69
2021/06/07 09:12:42;;;;;;;2.60;2.40;;;;;;;;;;5094206;28;20043;-68
2021/06/07 09:15:13;;;;;;;2.65;2.33;;;;;;;;;;5094155;28;20032;-69
2021/06/07 09:17:45;;;;;;;2.83;2.40;;;;;;;;;;5093926;28;20032;-69
2021/06/07 09:20:14;;;;;;;2.00;1.90;;;;;;;;;;5093360;28;20512;-69
2021/06/07 09:22:46;;;;;;;2.25;2.15;;;;;;;;;;5094101;28;20016;-68
2021/06/07 09:25:13;;;;;;;2.78;2.58;;;;;;;;;;5075795;28;20022;-68
2021/06/07 09:27:39;;;;;;;2.75;2.53;;;;;;;;;;5093938;28;20465;-69
2021/06/07 09:30:31;;;;;;;4.20;2.33;;;;;;;;;;5093668;28;20031;-68
2021/06/07 09:33:15;;;;;;;3.05;2.67;;;;;;;;;;5069650;28;20048;-69
2021/06/07 09:35:41;;;;;;;2.15;2.05;;;;;;;;;;5093704;28;20032;-68
2021/06/07 09:38:07;;;;;;;3.05;2.30;;;;;;;;;;5093732;28;20150;-68
2021/06/07 09:40:32;;;;;;;2.80;2.60;;;;;;;;;;5093651;28;20470;-68
2021/06/07 09:42:59;;;;;;;2.50;2.30;;;;;;;;;;5075525;28;20020;-68
2021/06/07 09:45:57;;;;;;;2.33;2.03;;;;;;;;;;5093430;28;20036;-68
2021/06/07 09:48:29;;;;;;;2.58;2.40;;;;;;;;;;5070397;28;20044;-68
2021/06/07 09:50:59;;;;;;;2.70;2.50;;;;;;;;;;5093584;28;20149;-68
2021/06/07 09:53:37;;;;;;;2.70;2.50;;;;;;;;;;5093446;28;20027;-69
2021/06/07 09:56:03;;;;;;;2.28;2.15;;;;;;;;;;5093284;28;20367;-69
2021/06/07 09:58:32;;;;;;;2.55;2.35;;;;;;;;;;5093372;28;20103;-68
2021/06/07 10:00:57;;;;;;;2.53;2.42;;;;;;;;;;5093217;28;20028;-69
2021/06/07 10:03:24;;;;;;;2.85;2.65;;;;;;;;;;5075078;28;20008;-68
2021/06/07 10:05:54;;;;;;;2.80;2.60;;;;;;;;;;5075095;28;20031;-68
2021/06/07 10:08:22;;;;;;;;;;;;;;;;;;5058990;28;20038;-68
2021/06/07 10:10:48;;;;;;;3.40;3.05;;;;;;;;;;5109065;28;20273;-68
2021/06/07 10:13:13;;;;;;;2.75;2.55;;;;;;;;;;5092707;28;20031;-68
2021/06/07 10:15:46;;;;;;;5.75;3.10;;;;;;;;;;5093100;28;20023;-69
2021/06/07 10:18:15;;;;;;;3.92;2.88;;;;;;;;;;5093068;28;20126;-68
2021/06/07 10:20:48;;;;;;;4.00;2.90;;;;;;;;;;5093138;28;20099;-68
2021/06/07 10:23:15;;;;;;;3.08;2.85;;;;;;;;;;5093170;28;20032;-68
2021/06/07 10:25:41;;;;;;;2.65;2.50;;;;;;;;;;5093178;28;20390;-68
2021/06/07 10:28:06;;;;;;;3.80;2.55;;;;;;;;;;5074918;28;20031;-68
2021/06/07 10:30:36;;;;;;;11.63;3.15;;;;;;;;;;5092919;28;20031;-68
2021/06/07 10:33:22;;;;;;;3.30;3.00;;;;;;;;;;5095411;28;20447;-68
2021/06/07 10:35:47;;;;;;;3.13;2.90;;;;;;;;;;5096885;28;20470;-68
2021/06/07 10:38:13;;;;;;;2.80;2.60;;;;;;;;;;5097271;28;20020;-68
2021/06/07 10:40:40;;;;;;;4.03;3.15;;;;;;;;;;5097138;28;20024;-68
2021/06/07 10:43:07;;;;;;;2.95;2.72;;;;;;;;;;5097163;28;20131;-68
2021/06/07 10:45:36;;;;;;;5.47;2.42;;;;;;;;;;5096862;28;20051;-68
2021/06/07 10:48:02;;;;;;;2.90;2.40;;;;;;;;;;5097052;28;20021;-68
2021/06/07 10:50:29;;;;;;;2.60;2.40;;;;;;;;;;5097057;28;20110;-68
2021/06/07 10:52:59;;;;;;;2.92;2.72;;;;;;;;;;5096903;28;20071;-68
2021/06/07 10:55:27;;;;;;;2.92;2.83;;;;;;;;;;5078466;28;20030;-68
2021/06/07 10:57:54;;;;;;;4.45;2.78;;;;;;;;;;5078670;28;20466;-68
2021/06/07 11:00:22;;;;;;;5.88;2.25;;;;;;;;;;5096870;28;20763;-68
2021/06/07 11:02:48;;;;;;;3.17;2.92;;;;;;;;;;5078608;28;20454;-69
2021/06/07 11:05:14;;;;;;;2.65;2.45;;;;;;;;;;5078444;28;20052;-68
2021/06/07 11:07:43;;;;;;;8.60;4.03;;;;;;;;;;5096313;28;20051;-69
2021/06/07 11:10:12;;;;;;;8.75;4.47;;;;;;;;;;5078632;28;20032;-69
2021/06/07 11:12:40;;;;;;;3.88;2.95;;;;;;;;;;5096488;28;20024;-69
2021/06/07 11:15:09;;;;;;;3.22;2.92;;;;;;;;;;5096546;28;20027;-69
2021/06/07 11:17:35;;;;;;;2.72;2.30;;;;;;;;;;5096256;28;20020;-68
2021/06/07 11:20:01;;;;;;;4.15;2.30;;;;;;;;;;5096195;28;20031;-68
2021/06/07 11:22:26;;;;;;;3.50;2.30;;;;;;;;;;5096141;28;20024;-69
2021/06/07 11:24:52;;;;;;;3.65;2.50;;;;;;;;;;5078050;28;20027;-69
2021/06/07 11:27:33;;;;;;;3.45;2.83;;;;;;;;;;5096116;28;20016;-69
2021/06/07 11:30:06;;;;;;;2.20;2.10;;;;;;;;;;5096165;28;20024;-68
2021/06/07 11:32:32;;;;;;;3.83;2.70;;;;;;;;;;5096225;28;20032;-68
2021/06/07 11:34:59;;;;;;;3.03;2.75;;;;;;;;;;5096164;28;20020;-69
2021/06/07 11:37:30;;;;;;;5.65;2.53;;;;;;;;;;5095670;28;20031;-69
2021/06/07 11:39:56;;;;;;;2.28;2.17;;;;;;;;;;5077840;28;20066;-69
2021/06/07 11:42:23;;;;;;;2.58;2.40;;;;;;;;;;5095980;28;20485;-69
2021/06/07 11:44:51;;;;;;;4.53;3.17;;;;;;;;;;5084672;28;20171;-69
2021/06/07 11:47:35;;;;;;;3.90;2.88;;;;;;;;;;5057752;28;20035;-69
2021/06/07 11:50:02;;;;;;;3.35;2.83;;;;;;;;;;5075580;28;20056;-69
2021/06/07 11:52:47;;;;;;;2.88;2.67;;;;;;;;;;5075471;28;20074;-68
2021/06/07 11:55:16;;;;;;;4.45;2.72;;;;;;;;;;5075501;28;20039;-69
2021/06/07 11:57:42;;;;;;;3.20;2.90;;;;;;;;;;5040770;28;20517;-69
2021/06/07 12:00:09;;;;;;;2.90;2.40;;;;;;;;;;5075395;28;20027;-69
2021/06/07 12:02:35;;;;;;;3.15;2.58;;;;;;;;;;5075404;28;20023;-69
2021/06/07 12:05:04;;;;;;;2.78;2.55;;;;;;;;;;5057142;28;20032;-69
2021/06/07 12:07:32;;;;;;;3.55;3.15;;;;;;;;;;5075448;28;20058;-68
2021/06/07 12:09:59;;;;;;;3.65;3.35;;;;;;;;;;5057466;28;20048;-68
2021/06/07 12:12:28;;;;;;;3.72;2.45;;;;;;;;;;5075319;28;20032;-69
2021/06/07 12:14:54;;;;;;;2.33;2.22;;;;;;;;;;5075288;28;20106;-68
2021/06/07 12:17:19;;;;;;;2.60;2.40;;;;;;;;;;5075079;28;20497;-69
2021/06/07 12:19:46;;;;;;;3.17;2.30;;;;;;;;;;5075024;28;20024;-69
2021/06/07 12:22:24;;;;;;;2.40;2.30;;;;;;;;;;5075118;28;20107;-69
2021/06/07 12:24:58;;;;;;;2.92;2.22;;;;;;;;;;5057118;28;20028;-69
2021/06/07 12:30:16;;;;;;;2.97;2.63;;;;;;;;;;5075062;28;20394;-69
2021/06/07 12:32:41;;;;;;;2.38;2.17;;;;;;;;;;5074789;28;20024;-69
2021/06/07 12:35:15;;;;;;;2.80;2.60;;;;;;;;;;5074614;28;20382;-69
2021/06/07 12:37:41;;;;;;;8.20;2.70;;;;;;;;;;5074690;28;20116;-69
2021/06/07 12:40:11;;;;;;;2.78;2.55;;;;;;;;;;5074607;28;20102;-69
2021/06/07 12:42:37;;;;;;;4.22;2.80;;;;;;;;;;5056705;28;20099;-69
2021/06/07 12:45:07;;;;;;;3.40;3.10;;;;;;;;;;5086045;28;20039;-69
2021/06/07 12:47:32;;;;;;;3.13;2.55;;;;;;;;;;5094749;28;20031;-69
2021/06/07 12:50:11;;;;;;;4.10;3.60;;;;;;;;;;5094541;28;20429;-69
2021/06/07 12:52:37;;;;;;;3.15;2.95;;;;;;;;;;5060013;28;20093;-69
2021/06/07 12:55:04;;;;;;;3.30;3.10;;;;;;;;;;5093639;28;20114;-69
2021/06/07 12:57:30;;;;;;;3.30;3.10;;;;;;;;;;5094587;28;20036;-69
2021/06/07 12:59:55;;;;;;;2.83;2.63;;;;;;;;;;5094014;28;20359;-69
2021/06/07 13:02:31;;;;;;;3.30;2.80;;;;;;;;;;5094404;28;20073;-69
2021/06/07 13:04:57;;;;;;;2.85;2.65;;;;;;;;;;5094379;28;20039;-69
2021/06/07 13:07:22;;;;;;;5.70;2.97;;;;;;;;;;5094315;28;20024;-69
2021/06/07 13:09:51;;;;;;;4.93;2.55;;;;;;;;;;5076280;28;20098;-69
2021/06/07 13:12:26;;;;;;;3.67;3.00;;;;;;;;;;5094214;28;20020;-69
2021/06/07 13:14:55;;;;;;;2.72;2.50;;;;;;;;;;5075962;28;20042;-69
2021/06/07 13:17:23;;;;;;;2.80;2.60;;;;;;;;;;5094003;28;20028;-69
2021/06/07 13:19:57;;;;;;;2.50;2.40;;;;;;;;;;5093896;28;20107;-69
2021/06/07 13:22:24;;;;;;;3.35;3.05;;;;;;;;;;5094116;28;20114;-69
2021/06/07 13:24:50;;;;;;;3.72;3.10;;;;;;;;;;5075850;28;20047;-69
2021/06/07 13:27:20;;;;;;;3.35;2.83;;;;;;;;;;5093992;28;20482;-69
2021/06/07 13:29:49;;;;;;;2.90;2.65;;;;;;;;;;5094115;28;20020;-69
2021/06/07 13:32:33;;;;;;;2.97;2.77;;;;;;;;;;5093828;28;20474;-69
2021/06/07 13:35:00;;;;;;;6.15;3.13;;;;;;;;;;5093857;28;20034;-69
2021/06/07 13:37:27;;;;;;;3.22;3.03;;;;;;;;;;5093737;28;20067;-69
2021/06/07 13:40:11;;;;;;;4.65;3.45;;;;;;;;;;5093717;28;20020;-69
2021/06/07 13:42:41;;;;;;;3.58;3.28;;;;;;;;;;5058916;28;20027;-69
2021/06/07 13:45:07;;;;;;;;;;;;;;;;;;5093565;28;20089;-69
2021/06/07 13:47:35;;;;;;;3.20;2.90;;;;;;;;;;5093723;28;20312;-69
2021/06/07 13:50:07;;;;;;;3.13;2.90;;;;;;;;;;5075426;28;20493;-69
2021/06/07 13:52:42;;;;;;;5.88;3.15;;;;;;;;;;5092357;28;20020;-69
2021/06/07 13:55:11;;;;;;;3.63;3.30;;;;;;;;;;5072965;28;20406;-69
2021/06/07 13:57:55;;;;;;;4.82;3.10;;;;;;;;;;5091993;28;20131;-69
2021/06/07 14:00:21;;;;;;;3.95;3.30;;;;;;;;;;5092344;28;20021;-69
2021/06/07 14:02:46;;;;;;;9.55;3.33;;;;;;;;;;5092913;28;20518;-69
2021/06/07 14:05:12;;;;;;;4.20;3.17;;;;;;;;;;5093307;28;20031;-69
2021/06/07 14:07:37;;;;;;;5.43;2.60;;;;;;;;;;5093067;28;20019;-69
2021/06/07 14:10:03;;;;;;;2.85;2.75;;;;;;;;;;5093305;28;20035;-69
2021/06/07 14:12:29;;;;;;;2.83;2.67;;;;;;;;;;5093238;28;20374;-69
2021/06/07 14:14:54;;;;;;;3.35;2.97;;;;;;;;;;5093044;28;20020;-69
2021/06/07 14:17:20;;;;;;;5.97;3.20;;;;;;;;;;5093099;28;20031;-69
2021/06/07 14:19:46;;;;;;;3.55;3.35;;;;;;;;;;5093291;28;20036;-69
2021/06/07 14:24:38;;;;;;;5.63;3.50;;;;;;;;;;5093261;28;20059;-69
2021/06/07 14:27:03;;;;;;;4.25;3.97;;;;;;;;;;5093038;28;20052;-69
2021/06/07 14:29:29;;;;;;;3.28;3.00;;;;;;;;;;5092103;28;20024;-69
2021/06/07 14:31:54;;;;;;;5.53;3.00;;;;;;;;;;5092491;28;20432;-69
2021/06/07 14:34:20;;;;;;;3.55;3.35;;;;;;;;;;5092974;28;20028;-69
2021/06/07 14:36:46;;;;;;;5.40;3.30;;;;;;;;;;5092428;28;21088;-69
2021/06/07 14:39:12;;;;;;;4.10;3.38;;;;;;;;;;5092678;28;20028;-69
2021/06/07 14:41:37;;;;;;;4.13;3.75;;;;;;;;;;5092499;28;20012;-69
2021/06/07 14:44:03;;;;;;;3.33;3.13;;;;;;;;;;5074090;28;20074;-69
2021/06/07 14:46:29;;;;;;;4.88;3.53;;;;;;;;;;5090882;28;20036;-69
2021/06/07 14:48:55;;;;;;;3.30;3.10;;;;;;;;;;5091446;28;20031;-69